LFMTLFBP

Guest
Details From LFMT - Montpellier/mediterranee
To LFBP - Pau Pyrenees
Flight Number -
Tags Decoded
Created
Modified
Stats Distance 194 nm / 360 km
Max Altitude 13,999 ft / 4,267 m
Waypoints 5
Social Downloads 3
Likes 0
Share VATSIM

Download

Looking for another format? Having issues loading an existing format? Contact us
Advertisement - Login to hide

Notes

Decoded

Route

LFMT BRUSC AFRIC TOU LFBP

ID Type Via Altitude Latitude Longitude Leg Dist Tot Dist Heading (true) Name
O LFMT APT - 0 ft / 0 m 43.57586˚ 3.95193˚ - 0 nm - -
BRUSC FIX - 13,999 ft / 4,267 m 43.74750˚ 3.02333˚ 41 nm 41 nm 285° / 284° -
AFRIC FIX - 13,999 ft / 4,267 m 43.77417˚ 2.86917˚ 6 nm 48 nm 284° / 283° -
TOU VOR - 13,999 ft / 4,267 m 43.68083˚ 1.30981˚ 67 nm 116 nm 266° / 265° TOULOUSE BLAGNAC VOR-DME
O LFBP APT - 0 ft / 0 m 43.38766˚ -0.43326˚ 77 nm 194 nm 258° / 256° -

Altitude Profile

Advertisement - Login to hide

Weather


0- 5 10 15 20 25 30 35+ Temperature / ° C

Clouds and Precipitation
Forecast for 2018-05-23 00:00 UTC. Updated 16 minutes ago

Ground ~20,000 ft ~40,000 ft Winds

LFMT

Details ICAO LFMT (MPL)
Name Montpellier/Mediterranee
Region France
Timezone Europe/Paris (UTC+2.0)
Stats Elevation 16 ft / 5 m (AMSL)
Location 43.576262° 3.963261°
Runways 2
Magnetic Variation 1.298° E

METAR

LFMT 222330Z AUTO 01003KT CAVOK 15/14 Q1016 BECMG BKN008

Decode

TAF

TAF LFMT 222000Z 2221/2321 18005KT CAVOK BECMG 2300/2302 03010KT BKN008 TEMPO 2302/2306 2000 BR OVC004 PROB30 TEMPO 2303/2305 0500 BCFG BECMG 2307/2309 NSC BECMG 2310/2312 18010KT

Decode

Departure Runways

ID Width Length Bearing (true) Bearing (mag) Surface Threshold Offset Overrun Length
13L 164 ft / 50 m 8,525 ft / 2,598 m 124.78° 123.48° Asphalt 0 ft / 0 m 0 ft / 0 m
13R 98 ft / 30 m 3,611 ft / 1,101 m 124.80° 123.50° Asphalt 328 ft / 100 m 0 ft / 0 m
31L 98 ft / 30 m 3,611 ft / 1,101 m 304.81° 303.51° Asphalt 0 ft / 0 m 0 ft / 0 m
31R 164 ft / 50 m 8,525 ft / 2,598 m 304.80° 303.50° Asphalt 0 ft / 0 m 0 ft / 0 m

LFBP

Details ICAO LFBP (PUF)
Name Pau Pyrenees
Region France
Timezone Europe/Paris (UTC+2.0)
Stats Elevation 616 ft / 188 m (AMSL)
Location 43.381078° -0.420752°
Runways 1
Magnetic Variation 0.147° E

METAR

LFBP 222330Z AUTO 00000KT CAVOK 15/13 Q1017

Decode

TAF

TAF LFBP 221558Z 2215/2312 CNL= TAF LFBZ 221558Z 2215/2312 CNL

Decode

Destination Runways

ID Width Length Bearing (true) Bearing (mag) Surface Threshold Offset Overrun Length
13 148 ft / 45 m 8,191 ft / 2,497 m 125.89° 125.74° Asphalt 0 ft / 0 m 0 ft / 0 m
31 148 ft / 45 m 8,191 ft / 2,497 m 305.90° 305.75° Asphalt 0 ft / 0 m 0 ft / 0 m

Approach Navaids

Runway Type Ident Frequency Range Bearing (true) Bearing (mag) Slope Elevation
31 Localiser PU 110.10 MHz 18 nm / 33 km 305.89° 305.74° - 576 ft / 176 m (AMSL)
31 Glidescope PU 110.10 MHz 10 nm / 19 km 305.90° 305.75° 3.00° 676 ft / 206 m (AMSL)
31 DME PU 110.10 MHz 18 nm / 33 km - - - 608 ft / 185 m (AMSL)

Popular Alternatives